Kimball, NE

4:59 PM MDT on March 31, 2015 (GMT -0600)
Kimball Municipal-Arraj | | Change Station
CLOSE
Current Station
Airport
Location: Kimball,
Elevation: 4925 ft
Nearby Weather Stations
Active Advisory: Fire Weather Warning

Elev 4925 ft 41.19 °N, 103.68 °W | Updated 44 minutes ago

Clear
Clear
76 °F
Feels Like 76 °F
N
9
Wind Variable Wind from SW
Gusts 17 mph

Today
High -- | Low -- °F
--% Chance of Precip.
Yesterday
High -- | Low -- °F
Precip. -- in
6:39 AM 7:18 PM
Waxing Gibbous, 89% visible
Pressure 29.84 in
Visibility 10.0 miles
Clouds Clear
Dew Point 18 °F
Humidity 11%
Rainfall 0.00 in
Snow Depth Not available.
UV 4 out of 12
Pollen 9.10 out of 12
Air Quality Not available.
Flu Activity Not available.
METAR KIBM 312215Z AUTO 23008G15KT 10SM CLR 25/M07 A2984 RMK AO2 T02461075

More Conditions Fewer Conditions

Pressure 29.84 in
Visibility 10.0 miles
Clouds Clear
Dew Point 18 °F
Humidity 11%
Rainfall 0.00 in
Snow Depth Not available.
UV 4 out of 12
Pollen 9.10 out of 12
Air Quality Not available.
Flu Activity Not available.
METAR KIBM 312215Z AUTO 23008G15KT 10SM CLR 25/M07 A2984 RMK AO2 T02461075

More Conditions Fewer Conditions

10-Day Weather Forecast

Almanac

Astronomy

Mar. 31, 2015 Rise Set
Actual Time
Civil Twilight
Nautical Twilight
Astronomical Twilight
Moon
Length of Visible Light
Length of Day
Tomorrow will be .
, % of the Moon is Illuminated

Today's Extremes

State Highs State Lows

Community

WunderPhotos

Upload Photos

1,809,864 photos uploaded!

WunderBlogs® & News

Nearby

Air Quality

  Air Quality AQ Index Pollutant
Not available.

Snow Depth

Station Depth Elevation

Earthquake Activity

City Distance Mag. Time & Date
Minimum magnitude displayed is 2.5.

Coastal Water Temperatures

Place Temperature

Stations

Nearby Weather Stations

Station Location Temp. Windchill Dew Point Humidity Wind Precip. Elev Updated Type
                   
Fire Weather Warning
Statement as of 2:59 PM MDT on March 31, 2015

... Red flag warning remains in effect until 8 PM MDT this evening
for low humidity and gusty winds for fire weather zones 310...
311... 312 and 313...

* wind... westerly 15 to 20 mph with gusts 25 to 30 mph.

* Humidity... afternoon and early evening humidities around 10 to
15 percent.

* Impacts... any fires that develop will spread rapidly. Outdoor
burning is not recommended.

Precautionary/preparedness actions...

A red flag warning means that critical fire weather conditions
are either occurring now... or will shortly. A combination of
strong winds... low relative humidity... and warm temperatures will
create explosive fire growth potential.